sensor_id;sensor_type;location;lat;lon;timestamp;P1;durP1;ratioP1;P2;durP2;ratioP2
77164;SDS011;66140;50.280;18.660;2023-01-19T05:03:02;123.60;;;51.15;;
77164;SDS011;66140;50.280;18.660;2023-01-19T05:05:27;114.50;;;51.90;;
77164;SDS011;66140;50.280;18.660;2023-01-19T05:07:53;117.30;;;54.35;;
77164;SDS011;66140;50.280;18.660;2023-01-19T05:10:19;125.15;;;56.30;;
77164;SDS011;66140;50.280;18.660;2023-01-19T05:12:44;126.15;;;55.97;;
77164;SDS011;66140;50.280;18.660;2023-01-19T05:15:10;119.95;;;53.75;;
77164;SDS011;66140;50.280;18.660;2023-01-19T05:17:36;136.05;;;55.92;;
77164;SDS011;66140;50.280;18.660;2023-01-19T05:20:02;142.63;;;57.50;;
77164;SDS011;66140;50.280;18.660;2023-01-19T05:22:28;141.70;;;60.45;;
77164;SDS011;66140;50.280;18.660;2023-01-19T05:24:53;125.13;;;55.33;;
77164;SDS011;66140;50.280;18.660;2023-01-19T05:27:19;136.60;;;55.55;;
77164;SDS011;66140;50.280;18.660;2023-01-19T05:29:44;117.03;;;54.63;;
77164;SDS011;66140;50.280;18.660;2023-01-19T05:32:09;123.22;;;56.85;;
77164;SDS011;66140;50.280;18.660;2023-01-19T05:34:35;121.80;;;53.63;;
77164;SDS011;66140;50.280;18.660;2023-01-19T05:37:01;122.55;;;55.20;;
77164;SDS011;66140;50.280;18.660;2023-01-19T05:39:26;125.68;;;55.20;;
77164;SDS011;66140;50.280;18.660;2023-01-19T05:41:52;124.07;;;54.28;;
77164;SDS011;66140;50.280;18.660;2023-01-19T05:44:18;133.80;;;58.53;;
77164;SDS011;66140;50.280;18.660;2023-01-19T05:46:43;123.00;;;51.95;;
77164;SDS011;66140;50.280;18.660;2023-01-19T05:49:10;129.57;;;55.45;;
77164;SDS011;66140;50.280;18.660;2023-01-19T05:51:36;124.05;;;54.88;;
77164;SDS011;66140;50.280;18.660;2023-01-19T05:54:06;112.85;;;50.88;;
77164;SDS011;66140;50.280;18.660;2023-01-19T05:56:32;118.72;;;51.80;;
77164;SDS011;66140;50.280;18.660;2023-01-19T05:58:59;113.38;;;51.58;;
77164;SDS011;66140;50.280;18.660;2023-01-19T06:01:25;111.80;;;46.83;;
77164;SDS011;66140;50.280;18.660;2023-01-19T06:03:51;105.18;;;49.97;;
77164;SDS011;66140;50.280;18.660;2023-01-19T06:06:17;120.35;;;48.08;;
77164;SDS011;66140;50.280;18.660;2023-01-19T06:08:42;108.93;;;50.78;;
77164;SDS011;66140;50.280;18.660;2023-01-19T06:11:08;115.90;;;50.80;;
77164;SDS011;66140;50.280;18.660;2023-01-19T06:13:34;101.22;;;45.28;;
77164;SDS011;66140;50.280;18.660;2023-01-19T06:15:59;100.73;;;45.00;;
77164;SDS011;66140;50.280;18.660;2023-01-19T06:18:26;105.88;;;45.13;;
77164;SDS011;66140;50.280;18.660;2023-01-19T06:20:52;100.80;;;41.85;;
77164;SDS011;66140;50.280;18.660;2023-01-19T06:23:23;101.75;;;44.35;;
77164;SDS011;66140;50.280;18.660;2023-01-19T06:25:49;87.75;;;37.55;;
77164;SDS011;66140;50.280;18.660;2023-01-19T06:28:15;88.65;;;40.30;;
77164;SDS011;66140;50.280;18.660;2023-01-19T06:30:41;87.80;;;41.10;;
77164;SDS011;66140;50.280;18.660;2023-01-19T06:33:06;77.22;;;37.47;;
77164;SDS011;66140;50.280;18.660;2023-01-19T06:35:32;83.63;;;36.50;;
77164;SDS011;66140;50.280;18.660;2023-01-19T06:37:57;54.63;;;25.75;;
77164;SDS011;66140;50.280;18.660;2023-01-19T06:40:22;66.27;;;30.83;;
77164;SDS011;66140;50.280;18.660;2023-01-19T06:42:48;59.30;;;31.23;;
77164;SDS011;66140;50.280;18.660;2023-01-19T06:45:13;59.90;;;28.20;;
77164;SDS011;66140;50.280;18.660;2023-01-19T06:47:39;30.37;;;16.90;;
77164;SDS011;66140;50.280;18.660;2023-01-19T06:50:04;43.37;;;21.10;;
77164;SDS011;66140;50.280;18.660;2023-01-19T06:52:30;59.75;;;27.30;;
77164;SDS011;66140;50.280;18.660;2023-01-19T06:54:55;69.43;;;30.30;;
77164;SDS011;66140;50.280;18.660;2023-01-19T06:57:21;66.22;;;29.30;;
77164;SDS011;66140;50.280;18.660;2023-01-19T06:59:46;68.07;;;31.58;;
77164;SDS011;66140;50.280;18.660;2023-01-19T07:02:12;40.03;;;19.50;;
77164;SDS011;66140;50.280;18.660;2023-01-19T07:04:43;35.30;;;15.68;;
77164;SDS011;66140;50.280;18.660;2023-01-19T07:07:09;64.15;;;26.98;;
77164;SDS011;66140;50.280;18.660;2023-01-19T07:09:34;61.53;;;28.02;;
77164;SDS011;66140;50.280;18.660;2023-01-19T07:12:00;44.30;;;21.52;;
77164;SDS011;66140;50.280;18.660;2023-01-19T07:14:25;50.87;;;20.43;;
77164;SDS011;66140;50.280;18.660;2023-01-19T07:16:57;74.75;;;27.48;;
77164;SDS011;66140;50.280;18.660;2023-01-19T07:19:22;66.07;;;27.95;;
77164;SDS011;66140;50.280;18.660;2023-01-19T07:21:49;49.50;;;21.52;;
77164;SDS011;66140;50.280;18.660;2023-01-19T07:24:15;69.10;;;27.90;;
77164;SDS011;66140;50.280;18.660;2023-01-19T07:26:40;78.82;;;29.17;;
77164;SDS011;66140;50.280;18.660;2023-01-19T07:29:06;79.95;;;32.85;;
77164;SDS011;66140;50.280;18.660;2023-01-19T07:31:32;72.25;;;30.58;;
77164;SDS011;66140;50.280;18.660;2023-01-19T07:33:57;64.90;;;27.13;;
77164;SDS011;66140;50.280;18.660;2023-01-19T07:36:22;64.25;;;27.65;;
77164;SDS011;66140;50.280;18.660;2023-01-19T07:38:48;78.80;;;29.57;;
77164;SDS011;66140;50.280;18.660;2023-01-19T07:41:13;71.93;;;30.50;;
77164;SDS011;66140;50.280;18.660;2023-01-19T07:43:39;80.03;;;29.50;;
77164;SDS011;66140;50.280;18.660;2023-01-19T07:46:04;73.38;;;30.33;;
77164;SDS011;66140;50.280;18.660;2023-01-19T07:48:31;67.30;;;28.77;;
77164;SDS011;66140;50.280;18.660;2023-01-19T07:51:00;70.78;;;27.67;;
77164;SDS011;66140;50.280;18.660;2023-01-19T07:53:29;70.70;;;29.50;;
77164;SDS011;66140;50.280;18.660;2023-01-19T07:55:55;61.03;;;26.48;;
77164;SDS011;66140;50.280;18.660;2023-01-19T07:58:24;76.35;;;30.90;;
77164;SDS011;66140;50.280;18.660;2023-01-19T08:00:50;71.55;;;28.42;;
77164;SDS011;66140;50.280;18.660;2023-01-19T08:03:16;82.72;;;30.23;;
77164;SDS011;66140;50.280;18.660;2023-01-19T08:05:41;50.38;;;24.00;;
77164;SDS011;66140;50.280;18.660;2023-01-19T08:08:07;75.63;;;29.83;;
77164;SDS011;66140;50.280;18.660;2023-01-19T08:10:32;57.77;;;24.77;;
77164;SDS011;66140;50.280;18.660;2023-01-19T08:12:58;60.13;;;22.40;;
77164;SDS011;66140;50.280;18.660;2023-01-19T08:15:24;48.70;;;21.77;;
77164;SDS011;66140;50.280;18.660;2023-01-19T08:18:00;43.75;;;19.67;;
77164;SDS011;66140;50.280;18.660;2023-01-19T08:20:27;46.95;;;19.98;;
77164;SDS011;66140;50.280;18.660;2023-01-19T08:22:54;61.03;;;22.70;;
77164;SDS011;66140;50.280;18.660;2023-01-19T08:25:24;52.50;;;20.83;;
77164;SDS011;66140;50.280;18.660;2023-01-19T08:27:54;35.72;;;17.02;;
77164;SDS011;66140;50.280;18.660;2023-01-19T08:30:20;49.30;;;21.30;;
77164;SDS011;66140;50.280;18.660;2023-01-19T08:32:47;60.13;;;22.52;;
77164;SDS011;66140;50.280;18.660;2023-01-19T08:35:12;42.00;;;19.67;;
77164;SDS011;66140;50.280;18.660;2023-01-19T08:37:37;50.67;;;21.13;;
77164;SDS011;66140;50.280;18.660;2023-01-19T08:40:03;28.33;;;14.37;;
77164;SDS011;66140;50.280;18.660;2023-01-19T08:42:29;29.92;;;15.02;;
77164;SDS011;66140;50.280;18.660;2023-01-19T08:44:54;36.70;;;17.92;;
77164;SDS011;66140;50.280;18.660;2023-01-19T08:47:20;36.33;;;16.10;;
77164;SDS011;66140;50.280;18.660;2023-01-19T08:49:45;40.85;;;17.65;;
77164;SDS011;66140;50.280;18.660;2023-01-19T08:52:11;24.45;;;12.32;;
77164;SDS011;66140;50.280;18.660;2023-01-19T08:54:36;34.60;;;14.87;;
77164;SDS011;66140;50.280;18.660;2023-01-19T08:57:01;33.27;;;15.20;;
77164;SDS011;66140;50.280;18.660;2023-01-19T08:59:27;26.30;;;13.05;;
77164;SDS011;66140;50.280;18.660;2023-01-19T09:01:52;24.13;;;12.33;;
77164;SDS011;66140;50.280;18.660;2023-01-19T09:04:17;29.33;;;13.33;;
77164;SDS011;66140;50.280;18.660;2023-01-19T09:06:43;22.70;;;11.77;;
77164;SDS011;66140;50.280;18.660;2023-01-19T09:09:08;19.33;;;11.13;;
77164;SDS011;66140;50.280;18.660;2023-01-19T09:11:34;24.07;;;11.77;;
77164;SDS011;66140;50.280;18.660;2023-01-19T09:13:59;18.35;;;10.77;;
77164;SDS011;66140;50.280;18.660;2023-01-19T09:16:25;16.98;;;9.13;;
77164;SDS011;66140;50.280;18.660;2023-01-19T09:18:51;25.23;;;12.30;;
77164;SDS011;66140;50.280;18.660;2023-01-19T09:21:17;19.92;;;11.45;;
77164;SDS011;66140;50.280;18.660;2023-01-19T09:23:43;20.98;;;10.48;;
77164;SDS011;66140;50.280;18.660;2023-01-19T09:26:08;18.17;;;9.13;;
77164;SDS011;66140;50.280;18.660;2023-01-19T09:28:34;21.85;;;10.75;;
77164;SDS011;66140;50.280;18.660;2023-01-19T09:31:05;21.60;;;11.55;;
77164;SDS011;66140;50.280;18.660;2023-01-19T09:33:31;26.23;;;11.48;;
77164;SDS011;66140;50.280;18.660;2023-01-19T09:35:57;19.58;;;9.50;;
77164;SDS011;66140;50.280;18.660;2023-01-19T09:38:22;23.23;;;12.88;;
77164;SDS011;66140;50.280;18.660;2023-01-19T09:40:51;20.73;;;12.20;;
77164;SDS011;66140;50.280;18.660;2023-01-19T09:50:57;26.50;;;12.98;;
77164;SDS011;66140;50.280;18.660;2023-01-19T09:56:21;26.13;;;13.70;;
77164;SDS011;66140;50.280;18.660;2023-01-19T09:58:48;28.42;;;14.65;;
77164;SDS011;66140;50.280;18.660;2023-01-19T10:04:43;32.63;;;15.73;;
77164;SDS011;66140;50.280;18.660;2023-01-19T10:06:49;34.42;;;15.15;;
77164;SDS011;66140;50.280;18.660;2023-01-19T10:12:03;40.60;;;18.83;;
77164;SDS011;66140;50.280;18.660;2023-01-19T10:15:15;35.85;;;17.00;;
77164;SDS011;66140;50.280;18.660;2023-01-19T10:18:02;48.63;;;19.63;;
77164;SDS011;66140;50.280;18.660;2023-01-19T10:20:34;35.38;;;16.70;;
77164;SDS011;66140;50.280;18.660;2023-01-19T10:26:07;44.00;;;20.63;;
77164;SDS011;66140;50.280;18.660;2023-01-19T10:28:39;42.58;;;18.27;;
77164;SDS011;66140;50.280;18.660;2023-01-19T10:31:06;35.65;;;16.73;;
77164;SDS011;66140;50.280;18.660;2023-01-19T10:33:33;27.80;;;14.90;;
77164;SDS011;66140;50.280;18.660;2023-01-19T10:36:02;38.72;;;17.02;;
77164;SDS011;66140;50.280;18.660;2023-01-19T10:38:40;27.60;;;12.25;;
77164;SDS011;66140;50.280;18.660;2023-01-19T10:41:09;33.60;;;16.30;;
77164;SDS011;66140;50.280;18.660;2023-01-19T10:43:57;34.65;;;16.20;;
77164;SDS011;66140;50.280;18.660;2023-01-19T10:46:41;35.97;;;15.90;;
77164;SDS011;66140;50.280;18.660;2023-01-19T10:49:28;30.67;;;14.70;;
77164;SDS011;66140;50.280;18.660;2023-01-19T10:51:59;27.50;;;13.07;;
77164;SDS011;66140;50.280;18.660;2023-01-19T10:54:26;26.70;;;13.32;;
77164;SDS011;66140;50.280;18.660;2023-01-19T10:56:56;21.95;;;11.52;;
77164;SDS011;66140;50.280;18.660;2023-01-19T10:59:33;25.95;;;13.05;;
77164;SDS011;66140;50.280;18.660;2023-01-19T11:04:28;22.20;;;10.93;;
77164;SDS011;66140;50.280;18.660;2023-01-19T11:07:03;28.20;;;13.27;;
77164;SDS011;66140;50.280;18.660;2023-01-19T11:09:38;23.38;;;12.00;;
77164;SDS011;66140;50.280;18.660;2023-01-19T11:12:03;21.63;;;11.63;;
77164;SDS011;66140;50.280;18.660;2023-01-19T11:14:29;17.85;;;10.13;;
77164;SDS011;66140;50.280;18.660;2023-01-19T11:16:56;19.48;;;8.52;;
77164;SDS011;66140;50.280;18.660;2023-01-19T11:19:29;21.17;;;10.32;;
77164;SDS011;66140;50.280;18.660;2023-01-19T11:24:46;18.88;;;9.95;;
77164;SDS011;66140;50.280;18.660;2023-01-19T11:27:17;18.20;;;9.07;;
77164;SDS011;66140;50.280;18.660;2023-01-19T11:29:47;21.27;;;10.30;;
77164;SDS011;66140;50.280;18.660;2023-01-19T11:32:18;21.05;;;10.40;;
77164;SDS011;66140;50.280;18.660;2023-01-19T11:34:46;17.95;;;9.65;;
77164;SDS011;66140;50.280;18.660;2023-01-19T11:42:13;19.92;;;9.40;;
77164;SDS011;66140;50.280;18.660;2023-01-19T11:47:50;16.13;;;8.40;;
77164;SDS011;66140;50.280;18.660;2023-01-19T11:50:32;18.58;;;7.65;;
77164;SDS011;66140;50.280;18.660;2023-01-19T11:58:28;19.08;;;10.30;;
77164;SDS011;66140;50.280;18.660;2023-01-19T12:01:38;19.33;;;10.52;;
77164;SDS011;66140;50.280;18.660;2023-01-19T12:06:37;20.13;;;9.98;;
77164;SDS011;66140;50.280;18.660;2023-01-19T12:11:40;20.60;;;10.95;;
77164;SDS011;66140;50.280;18.660;2023-01-19T12:14:20;23.92;;;11.63;;
77164;SDS011;66140;50.280;18.660;2023-01-19T12:16:50;18.20;;;9.60;;
77164;SDS011;66140;50.280;18.660;2023-01-19T12:19:23;20.10;;;10.23;;
77164;SDS011;66140;50.280;18.660;2023-01-19T12:21:53;17.65;;;9.50;;
77164;SDS011;66140;50.280;18.660;2023-01-19T12:24:25;18.55;;;10.63;;
77164;SDS011;66140;50.280;18.660;2023-01-19T12:26:55;22.52;;;12.15;;
77164;SDS011;66140;50.280;18.660;2023-01-19T12:29:23;18.13;;;9.10;;
77164;SDS011;66140;50.280;18.660;2023-01-19T12:37:06;23.67;;;11.77;;
77164;SDS011;66140;50.280;18.660;2023-01-19T12:42:56;18.00;;;9.70;;
77164;SDS011;66140;50.280;18.660;2023-01-19T12:45:27;24.70;;;11.13;;
77164;SDS011;66140;50.280;18.660;2023-01-19T12:47:55;20.88;;;9.20;;
77164;SDS011;66140;50.280;18.660;2023-01-19T12:50:21;12.18;;;6.60;;
77164;SDS011;66140;50.280;18.660;2023-01-19T12:52:56;20.75;;;11.32;;
77164;SDS011;66140;50.280;18.660;2023-01-19T12:55:30;17.35;;;9.70;;
77164;SDS011;66140;50.280;18.660;2023-01-19T13:00:44;20.50;;;11.85;;
77164;SDS011;66140;50.280;18.660;2023-01-19T13:08:15;19.95;;;10.20;;
77164;SDS011;66140;50.280;18.660;2023-01-19T13:18:42;23.08;;;10.35;;
77164;SDS011;66140;50.280;18.660;2023-01-19T13:21:13;22.60;;;10.60;;
77164;SDS011;66140;50.280;18.660;2023-01-19T13:24:00;26.48;;;11.90;;
77164;SDS011;66140;50.280;18.660;2023-01-19T13:26:29;19.13;;;9.82;;
77164;SDS011;66140;50.280;18.660;2023-01-19T13:31:32;27.35;;;12.52;;
77164;SDS011;66140;50.280;18.660;2023-01-19T13:34:02;19.70;;;9.52;;
77164;SDS011;66140;50.280;18.660;2023-01-19T13:36:35;25.17;;;11.02;;
77164;SDS011;66140;50.280;18.660;2023-01-19T13:42:00;22.10;;;11.30;;
77164;SDS011;66140;50.280;18.660;2023-01-19T13:47:03;25.65;;;12.45;;
77164;SDS011;66140;50.280;18.660;2023-01-19T13:49:41;25.52;;;11.75;;
77164;SDS011;66140;50.280;18.660;2023-01-19T13:52:15;24.83;;;11.38;;
77164;SDS011;66140;50.280;18.660;2023-01-19T13:54:46;21.27;;;11.15;;
77164;SDS011;66140;50.280;18.660;2023-01-19T13:57:24;27.35;;;12.25;;
77164;SDS011;66140;50.280;18.660;2023-01-19T14:02:49;21.13;;;11.15;;
77164;SDS011;66140;50.280;18.660;2023-01-19T14:05:42;21.45;;;11.00;;
77164;SDS011;66140;50.280;18.660;2023-01-19T14:13:33;20.80;;;10.38;;
77164;SDS011;66140;50.280;18.660;2023-01-19T14:16:05;22.85;;;12.23;;
77164;SDS011;66140;50.280;18.660;2023-01-19T14:18:31;22.08;;;11.35;;
77164;SDS011;66140;50.280;18.660;2023-01-19T14:31:46;20.40;;;10.80;;
77164;SDS011;66140;50.280;18.660;2023-01-19T14:37:12;20.48;;;11.65;;
77164;SDS011;66140;50.280;18.660;2023-01-19T14:39:45;26.10;;;13.98;;
77164;SDS011;66140;50.280;18.660;2023-01-19T14:42:25;25.85;;;13.00;;
77164;SDS011;66140;50.280;18.660;2023-01-19T14:44:54;20.48;;;10.95;;
77164;SDS011;66140;50.280;18.660;2023-01-19T14:47:28;27.25;;;13.02;;
77164;SDS011;66140;50.280;18.660;2023-01-19T14:49:59;28.55;;;13.73;;
77164;SDS011;66140;50.280;18.660;2023-01-19T14:52:30;29.15;;;11.25;;
77164;SDS011;66140;50.280;18.660;2023-01-19T14:55:00;23.00;;;12.82;;
77164;SDS011;66140;50.280;18.660;2023-01-19T14:57:32;22.48;;;10.20;;
77164;SDS011;66140;50.280;18.660;2023-01-19T14:59:58;25.90;;;11.15;;
77164;SDS011;66140;50.280;18.660;2023-01-19T15:02:24;26.13;;;11.80;;
77164;SDS011;66140;50.280;18.660;2023-01-19T15:04:49;27.80;;;13.00;;
77164;SDS011;66140;50.280;18.660;2023-01-19T15:07:19;25.42;;;12.65;;
77164;SDS011;66140;50.280;18.660;2023-01-19T15:09:48;29.25;;;13.63;;
77164;SDS011;66140;50.280;18.660;2023-01-19T15:12:15;28.05;;;12.77;;
77164;SDS011;66140;50.280;18.660;2023-01-19T15:14:42;26.40;;;11.35;;
77164;SDS011;66140;50.280;18.660;2023-01-19T15:17:12;25.75;;;12.10;;
77164;SDS011;66140;50.280;18.660;2023-01-19T15:19:49;22.48;;;11.80;;
77164;SDS011;66140;50.280;18.660;2023-01-19T15:22:16;33.50;;;14.02;;
77164;SDS011;66140;50.280;18.660;2023-01-19T15:24:41;25.23;;;12.68;;
77164;SDS011;66140;50.280;18.660;2023-01-19T15:27:10;25.65;;;11.55;;
77164;SDS011;66140;50.280;18.660;2023-01-19T15:29:36;26.90;;;12.70;;
77164;SDS011;66140;50.280;18.660;2023-01-19T15:32:04;28.17;;;12.27;;
77164;SDS011;66140;50.280;18.660;2023-01-19T15:34:32;30.08;;;12.60;;
77164;SDS011;66140;50.280;18.660;2023-01-19T15:36:57;25.83;;;12.93;;
77164;SDS011;66140;50.280;18.660;2023-01-19T15:39:23;19.88;;;10.43;;
77164;SDS011;66140;50.280;18.660;2023-01-19T15:41:50;25.70;;;11.77;;
77164;SDS011;66140;50.280;18.660;2023-01-19T15:44:16;19.58;;;9.90;;
77164;SDS011;66140;50.280;18.660;2023-01-19T15:46:42;18.50;;;9.75;;
77164;SDS011;66140;50.280;18.660;2023-01-19T15:49:07;27.33;;;12.65;;
77164;SDS011;66140;50.280;18.660;2023-01-19T15:51:33;32.73;;;13.93;;
77164;SDS011;66140;50.280;18.660;2023-01-19T15:53:58;30.85;;;13.82;;
77164;SDS011;66140;50.280;18.660;2023-01-19T15:56:25;36.15;;;16.58;;
77164;SDS011;66140;50.280;18.660;2023-01-19T15:58:52;32.88;;;13.15;;
77164;SDS011;66140;50.280;18.660;2023-01-19T16:01:19;26.30;;;12.60;;
77164;SDS011;66140;50.280;18.660;2023-01-19T16:03:46;30.42;;;13.13;;
77164;SDS011;66140;50.280;18.660;2023-01-19T16:06:12;29.10;;;12.98;;
77164;SDS011;66140;50.280;18.660;2023-01-19T16:08:40;27.52;;;12.50;;
77164;SDS011;66140;50.280;18.660;2023-01-19T16:11:06;29.10;;;12.98;;
77164;SDS011;66140;50.280;18.660;2023-01-19T16:13:37;34.67;;;16.02;;
77164;SDS011;66140;50.280;18.660;2023-01-19T16:16:03;32.25;;;14.48;;
77164;SDS011;66140;50.280;18.660;2023-01-19T16:18:32;31.45;;;14.60;;
77164;SDS011;66140;50.280;18.660;2023-01-19T16:20:58;32.72;;;14.95;;
77164;SDS011;66140;50.280;18.660;2023-01-19T16:23:24;36.92;;;13.85;;
77164;SDS011;66140;50.280;18.660;2023-01-19T16:26:33;35.58;;;13.55;;
77164;SDS011;66140;50.280;18.660;2023-01-19T16:28:57;29.85;;;13.18;;
77164;SDS011;66140;50.280;18.660;2023-01-19T16:31:24;33.90;;;13.27;;
77164;SDS011;66140;50.280;18.660;2023-01-19T16:33:50;35.28;;;14.65;;
77164;SDS011;66140;50.280;18.660;2023-01-19T16:38:47;34.55;;;14.02;;
77164;SDS011;66140;50.280;18.660;2023-01-19T16:41:12;26.83;;;14.00;;
77164;SDS011;66140;50.280;18.660;2023-01-19T16:43:38;33.25;;;15.05;;
77164;SDS011;66140;50.280;18.660;2023-01-19T16:46:03;34.05;;;13.95;;
77164;SDS011;66140;50.280;18.660;2023-01-19T16:48:29;35.35;;;15.43;;
77164;SDS011;66140;50.280;18.660;2023-01-19T16:51:03;36.65;;;15.32;;
77164;SDS011;66140;50.280;18.660;2023-01-19T16:53:30;35.47;;;14.20;;
77164;SDS011;66140;50.280;18.660;2023-01-19T16:55:58;33.78;;;13.63;;
77164;SDS011;66140;50.280;18.660;2023-01-19T16:58:27;39.88;;;15.05;;
77164;SDS011;66140;50.280;18.660;2023-01-19T17:00:53;34.70;;;15.53;;
77164;SDS011;66140;50.280;18.660;2023-01-19T17:03:18;35.97;;;14.63;;
77164;SDS011;66140;50.280;18.660;2023-01-19T17:05:50;37.22;;;16.88;;
77164;SDS011;66140;50.280;18.660;2023-01-19T17:08:19;35.83;;;15.32;;
77164;SDS011;66140;50.280;18.660;2023-01-19T17:10:45;37.78;;;15.65;;
77164;SDS011;66140;50.280;18.660;2023-01-19T17:13:11;30.92;;;14.00;;
77164;SDS011;66140;50.280;18.660;2023-01-19T17:15:36;35.75;;;16.05;;
77164;SDS011;66140;50.280;18.660;2023-01-19T17:18:01;34.83;;;15.25;;
77164;SDS011;66140;50.280;18.660;2023-01-19T17:20:27;38.17;;;15.55;;
77164;SDS011;66140;50.280;18.660;2023-01-19T17:22:52;37.63;;;15.73;;
77164;SDS011;66140;50.280;18.660;2023-01-19T17:25:18;37.55;;;16.40;;
77164;SDS011;66140;50.280;18.660;2023-01-19T17:27:44;45.72;;;17.90;;
77164;SDS011;66140;50.280;18.660;2023-01-19T17:30:09;43.78;;;16.08;;
77164;SDS011;66140;50.280;18.660;2023-01-19T17:32:35;40.83;;;17.92;;
77164;SDS011;66140;50.280;18.660;2023-01-19T17:35:01;42.58;;;16.52;;
77164;SDS011;66140;50.280;18.660;2023-01-19T17:37:26;37.42;;;14.73;;
77164;SDS011;66140;50.280;18.660;2023-01-19T17:39:53;48.05;;;20.30;;
77164;SDS011;66140;50.280;18.660;2023-01-19T17:42:18;42.13;;;17.58;;
77164;SDS011;66140;50.280;18.660;2023-01-19T17:44:44;39.10;;;16.70;;
77164;SDS011;66140;50.280;18.660;2023-01-19T17:47:09;32.03;;;13.18;;
77164;SDS011;66140;50.280;18.660;2023-01-19T17:49:35;36.13;;;15.75;;
77164;SDS011;66140;50.280;18.660;2023-01-19T17:52:01;45.15;;;18.13;;
77164;SDS011;66140;50.280;18.660;2023-01-19T17:54:26;44.45;;;18.55;;
77164;SDS011;66140;50.280;18.660;2023-01-19T17:56:51;48.67;;;17.33;;
77164;SDS011;66140;50.280;18.660;2023-01-19T17:59:17;37.88;;;16.50;;
77164;SDS011;66140;50.280;18.660;2023-01-19T18:01:42;37.05;;;15.73;;
77164;SDS011;66140;50.280;18.660;2023-01-19T18:04:09;30.52;;;14.13;;
77164;SDS011;66140;50.280;18.660;2023-01-19T18:06:35;32.57;;;15.07;;
77164;SDS011;66140;50.280;18.660;2023-01-19T18:09:01;31.17;;;14.80;;
77164;SDS011;66140;50.280;18.660;2023-01-19T18:11:28;32.00;;;15.45;;
77164;SDS011;66140;50.280;18.660;2023-01-19T18:13:54;36.08;;;15.30;;
77164;SDS011;66140;50.280;18.660;2023-01-19T18:16:21;27.25;;;13.85;;
77164;SDS011;66140;50.280;18.660;2023-01-19T18:18:48;37.63;;;16.05;;
77164;SDS011;66140;50.280;18.660;2023-01-19T18:21:15;31.67;;;14.82;;
77164;SDS011;66140;50.280;18.660;2023-01-19T18:23:41;38.85;;;16.15;;
77164;SDS011;66140;50.280;18.660;2023-01-19T18:26:11;36.03;;;16.42;;
77164;SDS011;66140;50.280;18.660;2023-01-19T18:28:38;37.78;;;18.33;;
77164;SDS011;66140;50.280;18.660;2023-01-19T18:31:07;34.35;;;15.00;;
77164;SDS011;66140;50.280;18.660;2023-01-19T18:33:35;45.83;;;16.42;;
77164;SDS011;66140;50.280;18.660;2023-01-19T18:36:01;37.42;;;16.73;;
77164;SDS011;66140;50.280;18.660;2023-01-19T18:38:26;36.15;;;14.95;;
77164;SDS011;66140;50.280;18.660;2023-01-19T18:40:59;36.60;;;14.95;;
77164;SDS011;66140;50.280;18.660;2023-01-19T18:43:25;32.40;;;15.35;;
77164;SDS011;66140;50.280;18.660;2023-01-19T18:45:51;35.20;;;15.27;;
77164;SDS011;66140;50.280;18.660;2023-01-19T18:48:16;39.53;;;15.73;;
77164;SDS011;66140;50.280;18.660;2023-01-19T18:50:42;37.40;;;14.97;;
77164;SDS011;66140;50.280;18.660;2023-01-19T18:53:07;30.67;;;15.15;;
77164;SDS011;66140;50.280;18.660;2023-01-19T18:55:33;39.00;;;15.23;;
77164;SDS011;66140;50.280;18.660;2023-01-19T18:58:00;44.10;;;16.85;;
77164;SDS011;66140;50.280;18.660;2023-01-19T19:00:28;41.10;;;16.20;;
77164;SDS011;66140;50.280;18.660;2023-01-19T19:02:53;45.63;;;17.30;;
77164;SDS011;66140;50.280;18.660;2023-01-19T19:05:19;35.20;;;15.88;;
77164;SDS011;66140;50.280;18.660;2023-01-19T19:07:45;38.30;;;18.52;;
77164;SDS011;66140;50.280;18.660;2023-01-19T19:10:11;40.35;;;17.40;;
77164;SDS011;66140;50.280;18.660;2023-01-19T19:12:36;43.83;;;18.38;;
77164;SDS011;66140;50.280;18.660;2023-01-19T19:15:02;45.42;;;18.90;;
77164;SDS011;66140;50.280;18.660;2023-01-19T19:17:27;53.17;;;22.02;;
77164;SDS011;66140;50.280;18.660;2023-01-19T19:19:53;44.40;;;19.67;;
77164;SDS011;66140;50.280;18.660;2023-01-19T19:22:18;53.80;;;24.80;;
77164;SDS011;66140;50.280;18.660;2023-01-19T19:24:43;54.60;;;22.17;;
77164;SDS011;66140;50.280;18.660;2023-01-19T19:27:09;52.93;;;22.63;;
77164;SDS011;66140;50.280;18.660;2023-01-19T19:29:38;61.05;;;22.58;;
77164;SDS011;66140;50.280;18.660;2023-01-19T19:32:04;49.40;;;21.55;;
77164;SDS011;66140;50.280;18.660;2023-01-19T19:34:30;60.38;;;23.25;;
77164;SDS011;66140;50.280;18.660;2023-01-19T19:36:56;54.72;;;23.05;;
77164;SDS011;66140;50.280;18.660;2023-01-19T19:39:21;47.05;;;20.42;;
77164;SDS011;66140;50.280;18.660;2023-01-19T19:41:47;53.53;;;21.90;;
77164;SDS011;66140;50.280;18.660;2023-01-19T19:44:13;52.85;;;22.70;;
77164;SDS011;66140;50.280;18.660;2023-01-19T19:46:39;49.25;;;20.77;;
77164;SDS011;66140;50.280;18.660;2023-01-19T19:49:07;46.78;;;20.63;;
77164;SDS011;66140;50.280;18.660;2023-01-19T19:51:33;48.45;;;20.70;;
77164;SDS011;66140;50.280;18.660;2023-01-19T19:53:58;49.97;;;20.77;;
77164;SDS011;66140;50.280;18.660;2023-01-19T19:56:25;54.78;;;22.35;;
77164;SDS011;66140;50.280;18.660;2023-01-19T19:58:53;46.17;;;20.15;;
77164;SDS011;66140;50.280;18.660;2023-01-19T20:01:21;43.45;;;17.35;;
77164;SDS011;66140;50.280;18.660;2023-01-19T20:04:10;45.45;;;20.60;;
77164;SDS011;66140;50.280;18.660;2023-01-19T20:06:41;46.28;;;20.17;;
77164;SDS011;66140;50.280;18.660;2023-01-19T20:09:09;37.53;;;17.73;;
77164;SDS011;66140;50.280;18.660;2023-01-19T20:11:36;48.25;;;21.02;;
77164;SDS011;66140;50.280;18.660;2023-01-19T20:14:07;35.55;;;16.77;;
77164;SDS011;66140;50.280;18.660;2023-01-19T20:16:33;41.72;;;19.63;;
77164;SDS011;66140;50.280;18.660;2023-01-19T20:18:59;41.63;;;19.52;;
77164;SDS011;66140;50.280;18.660;2023-01-19T20:23:52;43.85;;;20.65;;
77164;SDS011;66140;50.280;18.660;2023-01-19T20:26:20;51.90;;;21.50;;
77164;SDS011;66140;50.280;18.660;2023-01-19T20:28:49;42.78;;;19.98;;
